This is the latest recevied weather packets stored in our database for station/object KD5VOO. If no packets are shown the sender has not sent any weather packets the latest 10 day(s).
| Time | Temp. | Humidity | Pressure | Rain* | Wind** | Luminosity | Snow |
|---|---|---|---|---|---|---|---|
| 1777773321 | 17.22° C | 44% | 1016.3 hPa | 0 mm | - | 0 W/m² | - |
| 1777773015 | 17.78° C | 44% | 1015.9 hPa | 0 mm | - | 0 W/m² | - |
| 1777772711 | 17.78° C | 44% | 1015.9 hPa | 0 mm | - | 0 W/m² | - |
| 1777772106 | 17.78° C | 44% | 1015.9 hPa | 0 mm | - | 0 W/m² | - |
| 1777770591 | 18.89° C | 42% | 1015.6 hPa | 0 mm | - | 0 W/m² | - |
| 1777765439 | 21.67° C | 30% | 1014.3 hPa | 0 mm | - | 19 W/m² | - |
| 1777764529 | 22.22° C | 31% | 1014.3 hPa | 0 mm | - | 124 W/m² | - |
| 1777763922 | 22.22° C | 28% | 1014.3 hPa | 0 mm | - | 136 W/m² | - |
| 1777763620 | 22.22° C | 29% | 1013.9 hPa | 0 mm | - | 141 W/m² | - |
| 1777762409 | 22.78° C | 28% | 1013.9 hPa | 0 mm | - | 158 W/m² | - |
| 1777761500 | 22.78° C | 27% | 1013.9 hPa | 0 mm | - | 171 W/m² | - |
| 1777760288 | 22.78° C | 28% | 1013.9 hPa | 0 mm | - | 183 W/m² | - |
| 1777759377 | 22.78° C | 26% | 1013.6 hPa | 0 mm | - | 194 W/m² | - |
| 1777759074 | 22.78° C | 28% | 1013.6 hPa | 0 mm | - | 194 W/m² | - |
| 1777758165 | 23.33° C | 28% | 1013.6 hPa | 0 mm | - | 203 W/m² | - |
| 1777757862 | 23.33° C | 28% | 1013.2 hPa | 0 mm | - | 206 W/m² | - |
| 1777757559 | 23.33° C | 27% | 1013.2 hPa | 0 mm | - | 211 W/m² | - |
| 1777756956 | 22.78° C | 28% | 1013.6 hPa | 0 mm | - | 212 W/m² | - |
| 1777756349 | 22.78° C | 28% | 1013.2 hPa | 0 mm | - | 217 W/m² | - |
| 1777754223 | 22.78° C | 28% | 1013.9 hPa | 0 mm | - | 224 W/m² | - |
| 1777753009 | 22.22° C | 29% | 1013.9 hPa | 0 mm | - | 228 W/m² | - |
| 1777752706 | 22.22° C | 31% | 1013.9 hPa | 0 mm | - | 228 W/m² | - |
| 1777752402 | 22.22° C | 30% | 1013.9 hPa | 0 mm | - | 229 W/m² | - |
| 1777752099 | 22.22° C | 29% | 1014.3 hPa | 0 mm | - | 231 W/m² | - |
| 1777751797 | 22.22° C | 29% | 1014.3 hPa | 0 mm | - | 230 W/m² | - |
* Rain latest hour (hover to see other rain measurements)
** Current wind speed in m/s (hover to see current wind gust speed)